sensor_id;sensor_type;location;lat;lon;timestamp;temperature;humidity
30999;DHT22;20549;50.042;8.968;2024-03-23T00:54:16;10.20;95.20
30999;DHT22;20549;50.042;8.968;2024-03-23T00:56:43;10.30;95.30
30999;DHT22;20549;50.042;8.968;2024-03-23T00:59:09;10.30;95.80
30999;DHT22;20549;50.042;8.968;2024-03-23T01:01:36;10.30;95.80
30999;DHT22;20549;50.042;8.968;2024-03-23T01:04:03;10.40;96.20
30999;DHT22;20549;50.042;8.968;2024-03-23T01:06:29;10.40;96.50
30999;DHT22;20549;50.042;8.968;2024-03-23T01:08:56;10.50;96.80
30999;DHT22;20549;50.042;8.968;2024-03-23T01:11:22;10.50;97.00
30999;DHT22;20549;50.042;8.968;2024-03-23T01:13:49;10.60;97.20
30999;DHT22;20549;50.042;8.968;2024-03-23T01:16:16;10.70;97.30
30999;DHT22;20549;50.042;8.968;2024-03-23T01:18:42;10.70;97.50
30999;DHT22;20549;50.042;8.968;2024-03-23T01:21:09;10.80;97.50
30999;DHT22;20549;50.042;8.968;2024-03-23T01:23:35;10.90;97.70
30999;DHT22;20549;50.042;8.968;2024-03-23T01:26:02;11.00;97.80
30999;DHT22;20549;50.042;8.968;2024-03-23T01:28:29;11.10;97.80
30999;DHT22;20549;50.042;8.968;2024-03-23T01:30:55;11.20;97.70
30999;DHT22;20549;50.042;8.968;2024-03-23T01:33:22;11.20;97.50
30999;DHT22;20549;50.042;8.968;2024-03-23T01:35:48;11.30;97.40
30999;DHT22;20549;50.042;8.968;2024-03-23T01:38:15;11.40;97.40
30999;DHT22;20549;50.042;8.968;2024-03-23T01:40:41;11.40;97.40
30999;DHT22;20549;50.042;8.968;2024-03-23T01:43:08;11.40;97.40
30999;DHT22;20549;50.042;8.968;2024-03-23T01:45:35;11.50;97.40
30999;DHT22;20549;50.042;8.968;2024-03-23T01:48:01;11.50;97.30
30999;DHT22;20549;50.042;8.968;2024-03-23T01:50:28;11.60;97.40
30999;DHT22;20549;50.042;8.968;2024-03-23T01:52:54;11.60;97.30
30999;DHT22;20549;50.042;8.968;2024-03-23T01:55:21;11.70;97.30
30999;DHT22;20549;50.042;8.968;2024-03-23T01:57:48;11.70;97.30
30999;DHT22;20549;50.042;8.968;2024-03-23T02:00:14;11.70;97.20
30999;DHT22;20549;50.042;8.968;2024-03-23T02:02:44;11.80;97.10
30999;DHT22;20549;50.042;8.968;2024-03-23T02:05:07;11.80;96.90
30999;DHT22;20549;50.042;8.968;2024-03-23T02:07:34;11.80;96.90
30999;DHT22;20549;50.042;8.968;2024-03-23T02:10:01;11.90;96.90
30999;DHT22;20549;50.042;8.968;2024-03-23T02:12:27;11.90;97.10
30999;DHT22;20549;50.042;8.968;2024-03-23T02:14:54;11.90;97.00
30999;DHT22;20549;50.042;8.968;2024-03-23T02:17:20;11.90;96.90
30999;DHT22;20549;50.042;8.968;2024-03-23T02:19:47;11.90;96.60
30999;DHT22;20549;50.042;8.968;2024-03-23T02:22:13;11.90;96.40
30999;DHT22;20549;50.042;8.968;2024-03-23T02:24:40;11.90;96.30
30999;DHT22;20549;50.042;8.968;2024-03-23T02:27:07;11.90;96.10
30999;DHT22;20549;50.042;8.968;2024-03-23T02:29:33;11.90;96.60
30999;DHT22;20549;50.042;8.968;2024-03-23T02:32:00;11.80;96.30
30999;DHT22;20549;50.042;8.968;2024-03-23T02:34:26;11.80;96.90
30999;DHT22;20549;50.042;8.968;2024-03-23T02:36:53;11.80;96.70
30999;DHT22;20549;50.042;8.968;2024-03-23T02:39:20;11.80;96.80
30999;DHT22;20549;50.042;8.968;2024-03-23T02:41:46;11.80;96.90
30999;DHT22;20549;50.042;8.968;2024-03-23T02:44:13;11.80;97.00
30999;DHT22;20549;50.042;8.968;2024-03-23T02:46:39;11.80;96.90
30999;DHT22;20549;50.042;8.968;2024-03-23T02:49:06;11.80;96.80
30999;DHT22;20549;50.042;8.968;2024-03-23T02:51:32;11.80;96.50
30999;DHT22;20549;50.042;8.968;2024-03-23T02:53:59;11.80;96.30
30999;DHT22;20549;50.042;8.968;2024-03-23T02:56:26;11.80;96.10
30999;DHT22;20549;50.042;8.968;2024-03-23T02:58:52;11.70;96.00
30999;DHT22;20549;50.042;8.968;2024-03-23T03:01:19;11.70;96.00
30999;DHT22;20549;50.042;8.968;2024-03-23T03:03:45;11.60;96.00
30999;DHT22;20549;50.042;8.968;2024-03-23T03:06:22;11.60;96.20
30999;DHT22;20549;50.042;8.968;2024-03-23T03:08:39;11.50;96.50
30999;DHT22;20549;50.042;8.968;2024-03-23T03:11:05;11.50;96.80
30999;DHT22;20549;50.042;8.968;2024-03-23T03:13:32;11.50;97.00
30999;DHT22;20549;50.042;8.968;2024-03-23T03:15:58;11.40;97.20
30999;DHT22;20549;50.042;8.968;2024-03-23T03:18:25;11.40;97.40
30999;DHT22;20549;50.042;8.968;2024-03-23T03:20:54;11.40;97.50
30999;DHT22;20549;50.042;8.968;2024-03-23T03:23:18;11.40;97.30
30999;DHT22;20549;50.042;8.968;2024-03-23T03:25:45;11.40;97.80
30999;DHT22;20549;50.042;8.968;2024-03-23T03:28:11;11.40;97.80
30999;DHT22;20549;50.042;8.968;2024-03-23T03:30:38;11.40;98.00
30999;DHT22;20549;50.042;8.968;2024-03-23T03:33:04;11.40;98.10
30999;DHT22;20549;50.042;8.968;2024-03-23T03:35:31;11.40;98.10
30999;DHT22;20549;50.042;8.968;2024-03-23T03:37:58;11.40;98.20
30999;DHT22;20549;50.042;8.968;2024-03-23T03:40:24;11.40;98.30
30999;DHT22;20549;50.042;8.968;2024-03-23T03:42:51;11.40;98.40
30999;DHT22;20549;50.042;8.968;2024-03-23T03:45:17;11.40;98.50
30999;DHT22;20549;50.042;8.968;2024-03-23T03:47:44;11.40;98.50
30999;DHT22;20549;50.042;8.968;2024-03-23T03:50:11;11.40;98.60
30999;DHT22;20549;50.042;8.968;2024-03-23T03:52:37;11.40;98.60
30999;DHT22;20549;50.042;8.968;2024-03-23T03:55:04;11.40;98.60
30999;DHT22;20549;50.042;8.968;2024-03-23T03:57:30;11.40;98.80
30999;DHT22;20549;50.042;8.968;2024-03-23T03:59:57;11.40;99.00
30999;DHT22;20549;50.042;8.968;2024-03-23T04:02:24;11.40;99.10
30999;DHT22;20549;50.042;8.968;2024-03-23T04:04:50;11.50;99.30
30999;DHT22;20549;50.042;8.968;2024-03-23T04:07:17;11.50;99.40
30999;DHT22;20549;50.042;8.968;2024-03-23T04:09:43;11.50;99.60
30999;DHT22;20549;50.042;8.968;2024-03-23T04:12:10;11.50;99.70
30999;DHT22;20549;50.042;8.968;2024-03-23T04:14:36;11.60;99.80
30999;DHT22;20549;50.042;8.968;2024-03-23T04:17:03;11.70;99.90
30999;DHT22;20549;50.042;8.968;2024-03-23T04:19:30;11.70;99.90
30999;DHT22;20549;50.042;8.968;2024-03-23T04:21:56;11.80;99.90
30999;DHT22;20549;50.042;8.968;2024-03-23T04:24:23;11.90;99.90
30999;DHT22;20549;50.042;8.968;2024-03-23T04:26:49;12.00;99.90
30999;DHT22;20549;50.042;8.968;2024-03-23T04:29:16;12.10;99.90
30999;DHT22;20549;50.042;8.968;2024-03-23T04:31:43;12.20;99.90
30999;DHT22;20549;50.042;8.968;2024-03-23T04:34:09;12.30;99.90
30999;DHT22;20549;50.042;8.968;2024-03-23T04:36:36;12.40;99.90
30999;DHT22;20549;50.042;8.968;2024-03-23T04:39:02;12.50;99.90
30999;DHT22;20549;50.042;8.968;2024-03-23T04:41:29;12.60;99.90
30999;DHT22;20549;50.042;8.968;2024-03-23T04:43:56;12.70;99.90
30999;DHT22;20549;50.042;8.968;2024-03-23T04:46:22;12.70;99.70
30999;DHT22;20549;50.042;8.968;2024-03-23T04:48:49;12.80;99.50
30999;DHT22;20549;50.042;8.968;2024-03-23T04:51:22;12.90;99.20
30999;DHT22;20549;50.042;8.968;2024-03-23T04:53:48;12.90;98.70
30999;DHT22;20549;50.042;8.968;2024-03-23T04:56:17;12.90;98.00
30999;DHT22;20549;50.042;8.968;2024-03-23T04:58:44;12.90;97.50
30999;DHT22;20549;50.042;8.968;2024-03-23T05:01:11;12.90;97.20
30999;DHT22;20549;50.042;8.968;2024-03-23T05:03:37;12.80;96.90
30999;DHT22;20549;50.042;8.968;2024-03-23T05:06:04;12.70;96.90
30999;DHT22;20549;50.042;8.968;2024-03-23T05:08:30;12.60;97.00
30999;DHT22;20549;50.042;8.968;2024-03-23T05:10:57;12.50;97.10
30999;DHT22;20549;50.042;8.968;2024-03-23T05:13:23;12.50;97.40
30999;DHT22;20549;50.042;8.968;2024-03-23T05:15:53;12.40;97.60
30999;DHT22;20549;50.042;8.968;2024-03-23T05:18:19;12.30;97.70
30999;DHT22;20549;50.042;8.968;2024-03-23T05:20:46;12.20;97.90
30999;DHT22;20549;50.042;8.968;2024-03-23T05:23:12;12.20;98.10
30999;DHT22;20549;50.042;8.968;2024-03-23T05:25:39;12.10;98.30
30999;DHT22;20549;50.042;8.968;2024-03-23T05:28:06;12.00;98.30
30999;DHT22;20549;50.042;8.968;2024-03-23T05:30:32;12.00;98.10
30999;DHT22;20549;50.042;8.968;2024-03-23T05:32:59;11.90;97.50
30999;DHT22;20549;50.042;8.968;2024-03-23T05:35:25;11.90;97.00
30999;DHT22;20549;50.042;8.968;2024-03-23T05:37:52;11.80;96.70
30999;DHT22;20549;50.042;8.968;2024-03-23T05:40:19;11.70;96.50
30999;DHT22;20549;50.042;8.968;2024-03-23T05:42:45;11.70;96.40
30999;DHT22;20549;50.042;8.968;2024-03-23T05:45:12;11.60;96.30
30999;DHT22;20549;50.042;8.968;2024-03-23T05:47:38;11.60;96.20
30999;DHT22;20549;50.042;8.968;2024-03-23T05:50:05;11.50;96.20
30999;DHT22;20549;50.042;8.968;2024-03-23T05:52:31;11.50;96.10
30999;DHT22;20549;50.042;8.968;2024-03-23T05:54:58;11.50;95.80
30999;DHT22;20549;50.042;8.968;2024-03-23T05:57:25;11.40;95.70
30999;DHT22;20549;50.042;8.968;2024-03-23T05:59:51;11.40;95.70
30999;DHT22;20549;50.042;8.968;2024-03-23T06:02:18;11.40;95.70
30999;DHT22;20549;50.042;8.968;2024-03-23T06:04:45;11.40;95.70
30999;DHT22;20549;50.042;8.968;2024-03-23T06:07:11;11.30;95.40
30999;DHT22;20549;50.042;8.968;2024-03-23T06:09:38;11.30;95.40
30999;DHT22;20549;50.042;8.968;2024-03-23T06:12:04;11.40;95.40
30999;DHT22;20549;50.042;8.968;2024-03-23T06:14:31;11.40;95.30
30999;DHT22;20549;50.042;8.968;2024-03-23T06:16:57;11.40;95.10
30999;DHT22;20549;50.042;8.968;2024-03-23T06:19:24;11.30;95.30
30999;DHT22;20549;50.042;8.968;2024-03-23T06:21:51;11.30;94.90
30999;DHT22;20549;50.042;8.968;2024-03-23T06:24:17;11.40;95.00
30999;DHT22;20549;50.042;8.968;2024-03-23T06:26:44;11.40;95.00
30999;DHT22;20549;50.042;8.968;2024-03-23T06:29:10;11.40;94.90
30999;DHT22;20549;50.042;8.968;2024-03-23T06:31:37;11.30;94.70
30999;DHT22;20549;50.042;8.968;2024-03-23T06:34:03;11.40;94.70
30999;DHT22;20549;50.042;8.968;2024-03-23T06:36:30;11.40;94.70
30999;DHT22;20549;50.042;8.968;2024-03-23T06:38:57;11.40;94.50
30999;DHT22;20549;50.042;8.968;2024-03-23T06:41:24;11.40;94.70
30999;DHT22;20549;50.042;8.968;2024-03-23T06:43:50;11.40;94.30
30999;DHT22;20549;50.042;8.968;2024-03-23T06:46:16;11.40;94.40
30999;DHT22;20549;50.042;8.968;2024-03-23T06:48:44;11.50;94.40
30999;DHT22;20549;50.042;8.968;2024-03-23T06:51:10;11.50;94.30
30999;DHT22;20549;50.042;8.968;2024-03-23T06:53:36;11.50;94.10
30999;DHT22;20549;50.042;8.968;2024-03-23T06:56:03;11.50;93.80
30999;DHT22;20549;50.042;8.968;2024-03-23T06:58:29;11.50;93.50
30999;DHT22;20549;50.042;8.968;2024-03-23T07:00:56;11.50;93.20
30999;DHT22;20549;50.042;8.968;2024-03-23T07:03:23;11.50;92.60
30999;DHT22;20549;50.042;8.968;2024-03-23T07:05:49;11.50;93.00
30999;DHT22;20549;50.042;8.968;2024-03-23T07:08:16;11.50;93.10
30999;DHT22;20549;50.042;8.968;2024-03-23T07:10:42;11.60;93.20
30999;DHT22;20549;50.042;8.968;2024-03-23T07:13:09;11.50;93.00
30999;DHT22;20549;50.042;8.968;2024-03-23T07:15:35;11.60;92.90
30999;DHT22;20549;50.042;8.968;2024-03-23T07:18:02;11.60;92.80
30999;DHT22;20549;50.042;8.968;2024-03-23T07:20:29;11.60;92.40
30999;DHT22;20549;50.042;8.968;2024-03-23T07:22:55;11.60;92.40
30999;DHT22;20549;50.042;8.968;2024-03-23T07:25:22;11.60;92.70
30999;DHT22;20549;50.042;8.968;2024-03-23T07:27:48;11.70;92.80
30999;DHT22;20549;50.042;8.968;2024-03-23T07:30:15;11.70;92.50
30999;DHT22;20549;50.042;8.968;2024-03-23T07:32:43;11.80;92.30
30999;DHT22;20549;50.042;8.968;2024-03-23T07:35:08;11.90;92.00
30999;DHT22;20549;50.042;8.968;2024-03-23T07:37:35;12.00;91.30
30999;DHT22;20549;50.042;8.968;2024-03-23T07:40:01;12.00;90.70
30999;DHT22;20549;50.042;8.968;2024-03-23T07:42:28;12.00;89.80
30999;DHT22;20549;50.042;8.968;2024-03-23T07:44:54;12.00;88.80
30999;DHT22;20549;50.042;8.968;2024-03-23T07:47:21;12.00;88.40
30999;DHT22;20549;50.042;8.968;2024-03-23T07:49:48;12.00;87.90
30999;DHT22;20549;50.042;8.968;2024-03-23T07:52:14;12.00;87.50
30999;DHT22;20549;50.042;8.968;2024-03-23T07:54:41;12.00;87.30
30999;DHT22;20549;50.042;8.968;2024-03-23T07:57:07;12.00;87.10
30999;DHT22;20549;50.042;8.968;2024-03-23T07:59:34;12.10;86.80
30999;DHT22;20549;50.042;8.968;2024-03-23T08:02:01;12.10;86.70
30999;DHT22;20549;50.042;8.968;2024-03-23T08:04:27;12.20;86.70
30999;DHT22;20549;50.042;8.968;2024-03-23T08:06:54;12.30;87.10
30999;DHT22;20549;50.042;8.968;2024-03-23T08:09:20;12.40;87.10
30999;DHT22;20549;50.042;8.968;2024-03-23T08:11:47;12.50;87.20
30999;DHT22;20549;50.042;8.968;2024-03-23T08:14:14;12.60;87.10
30999;DHT22;20549;50.042;8.968;2024-03-23T08:16:40;12.80;86.80
30999;DHT22;20549;50.042;8.968;2024-03-23T08:19:07;13.00;86.00
30999;DHT22;20549;50.042;8.968;2024-03-23T08:21:33;13.20;86.00
30999;DHT22;20549;50.042;8.968;2024-03-23T08:24:00;13.60;88.20
30999;DHT22;20549;50.042;8.968;2024-03-23T08:26:26;14.10;90.50
30999;DHT22;20549;50.042;8.968;2024-03-23T08:28:53;14.70;91.60
30999;DHT22;20549;50.042;8.968;2024-03-23T08:31:20;15.30;90.90
30999;DHT22;20549;50.042;8.968;2024-03-23T08:33:46;15.90;87.50
30999;DHT22;20549;50.042;8.968;2024-03-23T08:36:13;16.40;82.60
30999;DHT22;20549;50.042;8.968;2024-03-23T08:38:40;16.80;79.30
30999;DHT22;20549;50.042;8.968;2024-03-23T08:41:09;17.00;76.50
30999;DHT22;20549;50.042;8.968;2024-03-23T08:43:35;17.10;74.60
30999;DHT22;20549;50.042;8.968;2024-03-23T08:46:12;17.20;73.60
30999;DHT22;20549;50.042;8.968;2024-03-23T08:48:39;17.40;73.90
30999;DHT22;20549;50.042;8.968;2024-03-23T08:51:08;17.60;74.70
30999;DHT22;20549;50.042;8.968;2024-03-23T08:53:34;17.90;74.00
30999;DHT22;20549;50.042;8.968;2024-03-23T08:56:03;18.10;73.20
30999;DHT22;20549;50.042;8.968;2024-03-23T08:58:31;18.50;72.10
30999;DHT22;20549;50.042;8.968;2024-03-23T09:01:02;18.90;72.30
30999;DHT22;20549;50.042;8.968;2024-03-23T09:03:26;19.30;72.70
30999;DHT22;20549;50.042;8.968;2024-03-23T09:05:53;19.90;72.30
30999;DHT22;20549;50.042;8.968;2024-03-23T09:08:19;20.40;71.10
30999;DHT22;20549;50.042;8.968;2024-03-23T09:10:46;21.00;69.60
30999;DHT22;20549;50.042;8.968;2024-03-23T09:13:13;21.50;68.30
30999;DHT22;20549;50.042;8.968;2024-03-23T09:15:46;22.00;67.60
30999;DHT22;20549;50.042;8.968;2024-03-23T09:18:11;22.50;66.40
30999;DHT22;20549;50.042;8.968;2024-03-23T09:20:38;23.00;64.70
30999;DHT22;20549;50.042;8.968;2024-03-23T09:23:05;23.50;63.30
30999;DHT22;20549;50.042;8.968;2024-03-23T09:25:31;23.80;62.30
30999;DHT22;20549;50.042;8.968;2024-03-23T09:27:58;24.10;61.40
30999;DHT22;20549;50.042;8.968;2024-03-23T09:30:24;24.40;59.90
30999;DHT22;20549;50.042;8.968;2024-03-23T09:32:51;24.50;58.60
30999;DHT22;20549;50.042;8.968;2024-03-23T09:35:18;24.60;57.40
30999;DHT22;20549;50.042;8.968;2024-03-23T09:37:44;24.50;56.70
30999;DHT22;20549;50.042;8.968;2024-03-23T09:40:11;24.40;56.60
30999;DHT22;20549;50.042;8.968;2024-03-23T09:42:37;24.20;55.80
30999;DHT22;20549;50.042;8.968;2024-03-23T09:45:10;24.00;55.00
30999;DHT22;20549;50.042;8.968;2024-03-23T09:47:34;23.60;54.20
30999;DHT22;20549;50.042;8.968;2024-03-23T09:50:00;23.20;53.60
30999;DHT22;20549;50.042;8.968;2024-03-23T09:52:27;22.60;53.50
30999;DHT22;20549;50.042;8.968;2024-03-23T09:54:53;22.10;53.40
30999;DHT22;20549;50.042;8.968;2024-03-23T09:57:20;21.50;53.70
30999;DHT22;20549;50.042;8.968;2024-03-23T09:59:47;21.00;54.50
30999;DHT22;20549;50.042;8.968;2024-03-23T10:02:15;20.60;55.10
30999;DHT22;20549;50.042;8.968;2024-03-23T10:04:40;20.30;55.60
30999;DHT22;20549;50.042;8.968;2024-03-23T10:07:19;20.00;55.70
30999;DHT22;20549;50.042;8.968;2024-03-23T10:09:45;19.80;55.70
30999;DHT22;20549;50.042;8.968;2024-03-23T10:12:12;19.50;56.30
30999;DHT22;20549;50.042;8.968;2024-03-23T10:14:40;19.20;55.60
30999;DHT22;20549;50.042;8.968;2024-03-23T10:17:19;19.00;55.60
30999;DHT22;20549;50.042;8.968;2024-03-23T10:19:46;18.70;55.80
30999;DHT22;20549;50.042;8.968;2024-03-23T10:22:22;18.40;56.00
30999;DHT22;20549;50.042;8.968;2024-03-23T10:24:39;18.10;55.90
30999;DHT22;20549;50.042;8.968;2024-03-23T10:27:05;17.80;56.20
30999;DHT22;20549;50.042;8.968;2024-03-23T10:29:32;17.60;56.40
30999;DHT22;20549;50.042;8.968;2024-03-23T10:32:11;17.40;56.80
30999;DHT22;20549;50.042;8.968;2024-03-23T10:34:37;17.10;57.00
30999;DHT22;20549;50.042;8.968;2024-03-23T10:37:04;16.90;57.40
30999;DHT22;20549;50.042;8.968;2024-03-23T10:39:35;16.70;57.60
30999;DHT22;20549;50.042;8.968;2024-03-23T10:42:00;16.50;58.00
30999;DHT22;20549;50.042;8.968;2024-03-23T10:44:26;16.40;58.30
30999;DHT22;20549;50.042;8.968;2024-03-23T10:46:53;16.30;58.60
30999;DHT22;20549;50.042;8.968;2024-03-23T10:49:19;16.20;58.80
30999;DHT22;20549;50.042;8.968;2024-03-23T10:51:46;16.20;58.90
30999;DHT22;20549;50.042;8.968;2024-03-23T10:54:13;16.10;58.70
30999;DHT22;20549;50.042;8.968;2024-03-23T10:56:39;16.00;58.90
30999;DHT22;20549;50.042;8.968;2024-03-23T10:59:06;16.00;58.80
30999;DHT22;20549;50.042;8.968;2024-03-23T11:01:32;15.90;58.60
30999;DHT22;20549;50.042;8.968;2024-03-23T11:03:59;15.80;58.50
30999;DHT22;20549;50.042;8.968;2024-03-23T11:06:35;15.70;58.20
30999;DHT22;20549;50.042;8.968;2024-03-23T11:09:02;15.60;58.30
30999;DHT22;20549;50.042;8.968;2024-03-23T11:11:28;15.50;58.50
30999;DHT22;20549;50.042;8.968;2024-03-23T11:13:55;15.50;58.60
30999;DHT22;20549;50.042;8.968;2024-03-23T11:16:28;15.50;59.00
30999;DHT22;20549;50.042;8.968;2024-03-23T11:21:54;15.60;59.50
30999;DHT22;20549;50.042;8.968;2024-03-23T11:24:21;15.70;59.90
30999;DHT22;20549;50.042;8.968;2024-03-23T11:26:47;15.80;60.10
30999;DHT22;20549;50.042;8.968;2024-03-23T11:29:15;15.80;60.20
30999;DHT22;20549;50.042;8.968;2024-03-23T11:31:51;15.80;59.80
30999;DHT22;20549;50.042;8.968;2024-03-23T11:34:13;15.60;59.40
30999;DHT22;20549;50.042;8.968;2024-03-23T11:36:39;15.30;59.10
30999;DHT22;20549;50.042;8.968;2024-03-23T11:39:18;14.90;59.10
30999;DHT22;20549;50.042;8.968;2024-03-23T11:41:50;14.50;59.10
30999;DHT22;20549;50.042;8.968;2024-03-23T11:44:20;14.10;59.60
30999;DHT22;20549;50.042;8.968;2024-03-23T11:46:46;13.70;60.00
30999;DHT22;20549;50.042;8.968;2024-03-23T11:51:48;13.00;61.50
30999;DHT22;20549;50.042;8.968;2024-03-23T11:54:15;12.70;61.70
30999;DHT22;20549;50.042;8.968;2024-03-23T11:56:53;12.40;62.30
30999;DHT22;20549;50.042;8.968;2024-03-23T11:59:08;12.30;62.90
30999;DHT22;20549;50.042;8.968;2024-03-23T12:01:34;12.10;63.20
30999;DHT22;20549;50.042;8.968;2024-03-23T12:04:01;12.00;63.70
30999;DHT22;20549;50.042;8.968;2024-03-23T12:06:28;11.90;64.10
30999;DHT22;20549;50.042;8.968;2024-03-23T12:08:54;11.90;64.20
30999;DHT22;20549;50.042;8.968;2024-03-23T12:11:21;11.90;64.20
30999;DHT22;20549;50.042;8.968;2024-03-23T12:13:47;11.90;64.40
30999;DHT22;20549;50.042;8.968;2024-03-23T12:16:16;12.00;64.70
30999;DHT22;20549;50.042;8.968;2024-03-23T12:18:41;12.10;65.30
30999;DHT22;20549;50.042;8.968;2024-03-23T12:21:07;12.20;66.00
30999;DHT22;20549;50.042;8.968;2024-03-23T12:23:34;12.40;66.60
30999;DHT22;20549;50.042;8.968;2024-03-23T12:26:00;12.70;67.00
30999;DHT22;20549;50.042;8.968;2024-03-23T12:28:27;13.00;66.70
30999;DHT22;20549;50.042;8.968;2024-03-23T12:30:54;13.20;66.40
30999;DHT22;20549;50.042;8.968;2024-03-23T12:33:20;13.40;65.70
30999;DHT22;20549;50.042;8.968;2024-03-23T12:35:47;13.50;65.20
30999;DHT22;20549;50.042;8.968;2024-03-23T12:38:13;13.60;64.60
30999;DHT22;20549;50.042;8.968;2024-03-23T12:40:40;13.70;63.70
30999;DHT22;20549;50.042;8.968;2024-03-23T12:43:07;13.80;63.50
30999;DHT22;20549;50.042;8.968;2024-03-23T12:45:33;13.80;63.30
30999;DHT22;20549;50.042;8.968;2024-03-23T12:48:00;13.80;63.10
30999;DHT22;20549;50.042;8.968;2024-03-23T12:50:26;13.80;62.50
30999;DHT22;20549;50.042;8.968;2024-03-23T12:52:53;13.90;62.10
30999;DHT22;20549;50.042;8.968;2024-03-23T12:55:19;13.90;62.10
30999;DHT22;20549;50.042;8.968;2024-03-23T12:57:46;13.90;62.10
30999;DHT22;20549;50.042;8.968;2024-03-23T13:00:14;13.90;62.20
30999;DHT22;20549;50.042;8.968;2024-03-23T13:02:41;13.90;62.20
30999;DHT22;20549;50.042;8.968;2024-03-23T13:05:07;13.90;62.10
30999;DHT22;20549;50.042;8.968;2024-03-23T13:07:37;13.90;62.10
30999;DHT22;20549;50.042;8.968;2024-03-23T13:10:04;14.00;62.50
30999;DHT22;20549;50.042;8.968;2024-03-23T13:12:30;14.00;62.50
30999;DHT22;20549;50.042;8.968;2024-03-23T13:14:56;14.10;62.50
30999;DHT22;20549;50.042;8.968;2024-03-23T13:17:23;14.20;62.30
30999;DHT22;20549;50.042;8.968;2024-03-23T13:19:50;14.30;62.40
30999;DHT22;20549;50.042;8.968;2024-03-23T13:22:16;14.40;62.40
30999;DHT22;20549;50.042;8.968;2024-03-23T13:24:43;14.60;62.10
30999;DHT22;20549;50.042;8.968;2024-03-23T13:27:09;14.70;61.70
30999;DHT22;20549;50.042;8.968;2024-03-23T13:29:36;14.80;61.40
30999;DHT22;20549;50.042;8.968;2024-03-23T13:32:03;14.80;61.30
30999;DHT22;20549;50.042;8.968;2024-03-23T13:34:29;14.90;60.70
30999;DHT22;20549;50.042;8.968;2024-03-23T13:36:56;14.90;60.30
30999;DHT22;20549;50.042;8.968;2024-03-23T13:39:25;14.90;60.10
30999;DHT22;20549;50.042;8.968;2024-03-23T13:41:51;14.90;60.10
30999;DHT22;20549;50.042;8.968;2024-03-23T13:44:18;14.70;60.00
30999;DHT22;20549;50.042;8.968;2024-03-23T13:46:44;14.40;59.50
30999;DHT22;20549;50.042;8.968;2024-03-23T13:49:44;13.90;59.00
30999;DHT22;20549;50.042;8.968;2024-03-23T13:51:46;13.40;59.00
30999;DHT22;20549;50.042;8.968;2024-03-23T13:54:10;12.80;59.20
30999;DHT22;20549;50.042;8.968;2024-03-23T13:56:36;12.20;59.80
30999;DHT22;20549;50.042;8.968;2024-03-23T13:59:03;11.60;60.70
30999;DHT22;20549;50.042;8.968;2024-03-23T14:01:30;11.10;61.90
30999;DHT22;20549;50.042;8.968;2024-03-23T14:03:56;10.70;63.50
30999;DHT22;20549;50.042;8.968;2024-03-23T14:06:23;10.40;65.10
30999;DHT22;20549;50.042;8.968;2024-03-23T14:08:49;10.20;67.40
30999;DHT22;20549;50.042;8.968;2024-03-23T14:11:17;10.10;69.00
30999;DHT22;20549;50.042;8.968;2024-03-23T14:13:42;10.10;70.60
30999;DHT22;20549;50.042;8.968;2024-03-23T14:16:09;10.20;71.80
30999;DHT22;20549;50.042;8.968;2024-03-23T14:18:36;10.30;72.00
30999;DHT22;20549;50.042;8.968;2024-03-23T14:21:02;10.50;72.50
30999;DHT22;20549;50.042;8.968;2024-03-23T14:23:30;10.60;72.50
30999;DHT22;20549;50.042;8.968;2024-03-23T14:25:56;10.70;72.70
30999;DHT22;20549;50.042;8.968;2024-03-23T14:28:22;10.70;72.50
30999;DHT22;20549;50.042;8.968;2024-03-23T14:30:49;10.80;72.40
30999;DHT22;20549;50.042;8.968;2024-03-23T14:33:16;10.80;72.50
30999;DHT22;20549;50.042;8.968;2024-03-23T14:35:42;10.80;72.50
30999;DHT22;20549;50.042;8.968;2024-03-23T14:38:08;10.80;72.30
30999;DHT22;20549;50.042;8.968;2024-03-23T14:40:35;10.80;72.30
30999;DHT22;20549;50.042;8.968;2024-03-23T14:43:02;10.70;72.50
30999;DHT22;20549;50.042;8.968;2024-03-23T14:45:28;10.70;73.10
30999;DHT22;20549;50.042;8.968;2024-03-23T14:47:55;10.60;72.80
30999;DHT22;20549;50.042;8.968;2024-03-23T14:50:21;10.60;73.00
30999;DHT22;20549;50.042;8.968;2024-03-23T14:52:48;10.60;73.30
30999;DHT22;20549;50.042;8.968;2024-03-23T14:55:14;10.60;73.70
30999;DHT22;20549;50.042;8.968;2024-03-23T14:57:41;10.60;73.90
30999;DHT22;20549;50.042;8.968;2024-03-23T15:00:08;10.60;74.60
30999;DHT22;20549;50.042;8.968;2024-03-23T15:02:34;10.60;75.20
30999;DHT22;20549;50.042;8.968;2024-03-23T15:05:01;10.60;75.70
30999;DHT22;20549;50.042;8.968;2024-03-23T15:07:27;10.70;76.10
30999;DHT22;20549;50.042;8.968;2024-03-23T15:09:54;10.70;76.00
30999;DHT22;20549;50.042;8.968;2024-03-23T15:12:21;10.80;75.70
30999;DHT22;20549;50.042;8.968;2024-03-23T15:14:47;10.90;75.80
30999;DHT22;20549;50.042;8.968;2024-03-23T15:17:14;10.90;75.90
30999;DHT22;20549;50.042;8.968;2024-03-23T15:19:41;10.90;76.20
30999;DHT22;20549;50.042;8.968;2024-03-23T15:22:07;11.00;76.50
30999;DHT22;20549;50.042;8.968;2024-03-23T15:24:34;11.00;77.60
30999;DHT22;20549;50.042;8.968;2024-03-23T15:27:00;11.00;76.60
30999;DHT22;20549;50.042;8.968;2024-03-23T15:29:27;11.00;76.60
30999;DHT22;20549;50.042;8.968;2024-03-23T15:31:53;11.00;76.60
30999;DHT22;20549;50.042;8.968;2024-03-23T15:34:20;11.00;76.80
30999;DHT22;20549;50.042;8.968;2024-03-23T15:36:49;11.00;77.20
30999;DHT22;20549;50.042;8.968;2024-03-23T15:39:18;11.00;77.80
30999;DHT22;20549;50.042;8.968;2024-03-23T15:41:45;11.10;78.60
30999;DHT22;20549;50.042;8.968;2024-03-23T15:44:12;11.10;78.90
30999;DHT22;20549;50.042;8.968;2024-03-23T15:46:38;11.20;78.90
30999;DHT22;20549;50.042;8.968;2024-03-23T15:49:05;11.30;79.20
30999;DHT22;20549;50.042;8.968;2024-03-23T15:51:31;11.40;79.40
30999;DHT22;20549;50.042;8.968;2024-03-23T15:54:01;11.50;79.10
30999;DHT22;20549;50.042;8.968;2024-03-23T15:56:30;11.50;79.00
30999;DHT22;20549;50.042;8.968;2024-03-23T15:58:54;11.60;79.00
30999;DHT22;20549;50.042;8.968;2024-03-23T16:01:20;11.60;78.80
30999;DHT22;20549;50.042;8.968;2024-03-23T16:03:47;11.70;78.50
30999;DHT22;20549;50.042;8.968;2024-03-23T16:06:13;11.70;78.10
30999;DHT22;20549;50.042;8.968;2024-03-23T16:08:40;11.70;77.80
30999;DHT22;20549;50.042;8.968;2024-03-23T16:11:07;11.70;77.60
30999;DHT22;20549;50.042;8.968;2024-03-23T16:13:33;11.70;77.40
30999;DHT22;20549;50.042;8.968;2024-03-23T16:16:06;11.60;77.20
30999;DHT22;20549;50.042;8.968;2024-03-23T16:18:35;11.60;76.90
30999;DHT22;20549;50.042;8.968;2024-03-23T16:21:03;11.60;75.50
30999;DHT22;20549;50.042;8.968;2024-03-23T16:23:28;11.40;74.20
30999;DHT22;20549;50.042;8.968;2024-03-23T16:25:55;11.20;73.70